Terminal Aerodrome Forecast
Issued by NWS

Home | Current Version | Previous Version | Text Only | Print | Product List | Glossary On
Versions: 1 2 3 4 5 6 7 8 9 10 11 12 13 14 15 16 17 18 19 20 21 22 23 24 25 26 27 28 29 30 31 32 33 34 35 36 37 38 39 40 41 42 43 44 45 46 47 48 49
000
FTUS46 KLOX 181142
TAFBUR
TAF
KBUR 181142Z 1812/1912 16005KT P6SM OVC012
     FM181700 14005KT P6SM BKN017
     FM181900 17006KT P6SM FEW022
     FM182100 19011KT P6SM SKC
     FM190400 VRB03KT P6SM SCT016
     FM190700 16004KT P6SM BKN011=

USA.gov is the U.S. government's official web portal to all federal, state and local government web resources and services.